Time;durP1;ratioP1;P1;durP2;ratioP2;P2;SDS_P1;SDS_P2;PMS_P1;PMS_P2;Temp;Humidity;BMP_temperature;BMP_pressure;BME280_temperature;BME280_humidity;BME280_pressure;Samples;Min_cycle;Max_cycle;Signal;HPM_P1;HPM_P2
2023/07/09 00:02:04;;;;;;;;;5.00;4.00;;;;;;;;119491;1189;25613;-65
2023/07/09 00:04:33;;;;;;;;;6.00;4.00;;;;;;;;119846;1192;25708;-63
2023/07/09 00:07:04;;;;;;;;;2.00;2.00;;;;;;;;119887;1184;24783;-63
2023/07/09 00:09:34;;;;;;;;;3.33;3.33;;;;;;;;119479;1192;25496;-65
2023/07/09 00:12:02;;;;;;;;;5.00;4.00;;;;;;;;119861;1189;24709;-67
2023/07/09 00:14:30;;;;;;;;;3.00;3.00;;;;;;;;119838;1192;24733;-67
2023/07/09 00:16:59;;;;;;;;;3.00;3.00;;;;;;;;119852;1183;26425;-64
2023/07/09 00:19:29;;;;;;;;;3.00;3.00;;;;;;;;119686;1192;25080;-65
2023/07/09 00:21:57;;;;;;;;;5.00;5.00;;;;;;;;119730;1192;24727;-64
2023/07/09 00:24:26;;;;;;;;;6.00;3.67;;;;;;;;119856;1192;25130;-65
2023/07/09 00:26:55;;;;;;;;;4.00;4.00;;;;;;;;119843;1183;25072;-65
2023/07/09 00:29:23;;;;;;;;;5.00;3.00;;;;;;;;119870;1192;26302;-66
2023/07/09 00:31:51;;;;;;;;;3.00;3.00;;;;;;;;119868;1192;25662;-66
2023/07/09 00:34:21;;;;;;;;;4.00;4.00;;;;;;;;119862;1192;25029;-67
2023/07/09 00:36:50;;;;;;;;;4.75;3.00;;;;;;;;119875;1192;24785;-66
2023/07/09 00:39:22;;;;;;;;;4.00;4.00;;;;;;;;119514;1190;25697;-65
2023/07/09 00:41:51;;;;;;;;;3.67;3.67;;;;;;;;119851;1183;25699;-66
2023/07/09 00:44:19;;;;;;;;;4.67;3.33;;;;;;;;119688;1191;25230;-66
2023/07/09 00:46:47;;;;;;;;;5.50;4.00;;;;;;;;119829;1192;24910;-66
2023/07/09 00:49:29;;;;;;;;;4.33;3.00;;;;;;;;119878;1183;25342;-66
2023/07/09 00:52:02;;;;;;;;;3.00;2.67;;;;;;;;119498;1192;24780;-67
2023/07/09 00:54:38;;;;;;;;;4.00;4.00;;;;;;;;119863;1192;25234;-66
2023/07/09 00:57:17;;;;;;;;;5.00;3.00;;;;;;;;119839;1189;25592;-65
2023/07/09 00:59:51;;;;;;;;;4.00;4.00;;;;;;;;119494;1186;25201;-65
2023/07/09 01:02:23;;;;;;;;;6.00;3.00;;;;;;;;119453;1190;25498;-66
2023/07/09 01:04:58;;;;;;;;;3.00;3.00;;;;;;;;119504;1185;24922;-67
2023/07/09 01:07:28;;;;;;;;;4.00;4.00;;;;;;;;119494;1185;24859;-66
2023/07/09 01:09:56;;;;;;;;;3.00;1.50;;;;;;;;119862;1183;26034;-66
2023/07/09 01:12:25;;;;;;;;;6.00;3.00;;;;;;;;119858;1192;25589;-66
2023/07/09 01:14:58;;;;;;;;;4.33;4.33;;;;;;;;119717;1192;25393;-66
2023/07/09 01:17:28;;;;;;;;;3.50;3.50;;;;;;;;119520;1184;25183;-66
2023/07/09 01:19:57;;;;;;;;;4.00;4.00;;;;;;;;119485;1192;25610;-66
2023/07/09 01:22:27;;;;;;;;;5.00;4.00;;;;;;;;119883;1183;24861;-66
2023/07/09 01:25:01;;;;;;;;;3.00;3.00;;;;;;;;119874;1192;25222;-66
2023/07/09 01:27:38;;;;;;;;;4.00;4.00;;;;;;;;119508;1186;24718;-66
2023/07/09 01:30:14;;;;;;;;;4.67;4.67;;;;;;;;119866;1183;25195;-66
2023/07/09 01:32:45;;;;;;;;;4.33;3.67;;;;;;;;119855;1189;25366;-66
2023/07/09 01:35:17;;;;;;;;;4.67;4.00;;;;;;;;119859;1184;25052;-66
2023/07/09 01:37:46;;;;;;;;;5.00;4.00;;;;;;;;119707;1186;25653;-66
2023/07/09 01:40:18;;;;;;;;;6.00;4.67;;;;;;;;119704;1192;25683;-66
2023/07/09 01:43:00;;;;;;;;;3.00;3.00;;;;;;;;119546;1190;24764;-66
2023/07/09 01:45:29;;;;;;;;;5.00;5.00;;;;;;;;119823;1192;25580;-62
2023/07/09 01:47:57;;;;;;;;;5.00;3.50;;;;;;;;119489;1192;25645;-69
2023/07/09 01:50:26;;;;;;;;;4.00;4.00;;;;;;;;119496;1188;24818;-66
2023/07/09 01:52:55;;;;;;;;;8.50;4.00;;;;;;;;119700;1189;25037;-66
2023/07/09 01:55:24;;;;;;;;;3.50;3.00;;;;;;;;119481;1192;25499;-67
2023/07/09 01:57:52;;;;;;;;;5.00;4.00;;;;;;;;119852;1184;26269;-66
2023/07/09 02:00:20;;;;;;;;;4.67;4.33;;;;;;;;119866;1192;24754;-66
2023/07/09 02:02:50;;;;;;;;;4.00;4.00;;;;;;;;119869;1192;25083;-68
2023/07/09 02:05:19;;;;;;;;;4.50;4.50;;;;;;;;119873;1192;26275;-64
2023/07/09 02:07:48;;;;;;;;;2.00;2.00;;;;;;;;119827;1192;25242;-66
2023/07/09 02:10:17;;;;;;;;;6.50;5.00;;;;;;;;119706;1186;25291;-66
2023/07/09 02:12:46;;;;;;;;;4.00;4.00;;;;;;;;119505;1192;25296;-66
2023/07/09 02:15:15;;;;;;;;;3.33;3.33;;;;;;;;119703;1185;25096;-66
2023/07/09 02:17:44;;;;;;;;;4.50;4.00;;;;;;;;119476;1192;25555;-65
2023/07/09 02:20:13;;;;;;;;;2.67;2.67;;;;;;;;119482;1189;26006;-66
2023/07/09 02:22:42;;;;;;;;;4.00;4.00;;;;;;;;119510;1186;25280;-65
2023/07/09 02:25:11;;;;;;;;;4.50;4.00;;;;;;;;119846;1192;24912;-65
2023/07/09 02:27:39;;;;;;;;;6.00;5.00;;;;;;;;119699;1185;25227;-66
2023/07/09 02:30:08;;;;;;;;;5.33;4.00;;;;;;;;119840;1189;24711;-65
2023/07/09 02:32:37;;;;;;;;;4.00;4.00;;;;;;;;119702;1184;24959;-66
2023/07/09 02:35:05;;;;;;;;;5.67;4.67;;;;;;;;119486;1192;25296;-61
2023/07/09 02:37:34;;;;;;;;;4.00;3.00;;;;;;;;119817;1180;25330;-66
2023/07/09 02:40:03;;;;;;;;;5.00;5.00;;;;;;;;119827;1184;25602;-65
2023/07/09 02:42:32;;;;;;;;;5.50;5.50;;;;;;;;119801;1189;24867;-66
2023/07/09 02:45:00;;;;;;;;;5.00;5.00;;;;;;;;119708;1185;25338;-65
2023/07/09 02:47:28;;;;;;;;;6.67;5.33;;;;;;;;119487;1192;25470;-66
2023/07/09 02:49:57;;;;;;;;;5.75;5.75;;;;;;;;119845;1180;25437;-67
2023/07/09 02:52:26;;;;;;;;;5.00;3.50;;;;;;;;119853;1184;25222;-66
2023/07/09 02:54:55;;;;;;;;;4.00;3.50;;;;;;;;119847;1189;25431;-66
2023/07/09 02:57:23;;;;;;;;;5.25;5.25;;;;;;;;119837;1189;25791;-66
2023/07/09 02:59:51;;;;;;;;;6.00;5.00;;;;;;;;119853;1192;24839;-66
2023/07/09 03:02:20;;;;;;;;;7.00;5.00;;;;;;;;119841;1189;24802;-66
2023/07/09 03:04:48;;;;;;;;;6.33;6.33;;;;;;;;119862;1183;24895;-67
2023/07/09 03:07:17;;;;;;;;;6.50;5.00;;;;;;;;119833;1192;25536;-66
2023/07/09 03:09:45;;;;;;;;;5.67;5.67;;;;;;;;119864;1184;25293;-66
2023/07/09 03:12:13;;;;;;;;;3.67;3.67;;;;;;;;119859;1184;24858;-66
2023/07/09 03:14:41;;;;;;;;;6.33;5.00;;;;;;;;119851;1192;25586;-63
2023/07/09 03:17:10;;;;;;;;;6.00;4.67;;;;;;;;119858;1189;24999;-66
2023/07/09 03:19:38;;;;;;;;;5.00;5.00;;;;;;;;119824;1184;25259;-67
2023/07/09 03:22:06;;;;;;;;;5.00;5.00;;;;;;;;119484;1185;25429;-67
2023/07/09 03:24:34;;;;;;;;;5.00;4.50;;;;;;;;119831;1192;24902;-67
2023/07/09 03:27:03;;;;;;;;;5.00;5.00;;;;;;;;119521;1186;25556;-66
2023/07/09 03:29:31;;;;;;;;;6.00;5.00;;;;;;;;119847;1189;25286;-66
2023/07/09 03:32:00;;;;;;;;;8.00;5.00;;;;;;;;119842;1192;26442;-66
2023/07/09 03:34:28;;;;;;;;;5.33;5.33;;;;;;;;119869;1192;25196;-66
2023/07/09 03:36:56;;;;;;;;;6.33;6.33;;;;;;;;119868;1183;25560;-67
2023/07/09 03:39:24;;;;;;;;;4.33;4.33;;;;;;;;119833;1192;24966;-66
2023/07/09 03:41:53;;;;;;;;;4.00;4.00;;;;;;;;119853;1180;25434;-66
2023/07/09 03:44:21;;;;;;;;;4.00;4.00;;;;;;;;119865;1192;24764;-66
2023/07/09 03:46:49;;;;;;;;;6.00;6.00;;;;;;;;119474;1192;25108;-66
2023/07/09 03:49:18;;;;;;;;;6.00;5.00;;;;;;;;119839;1192;25336;-64
2023/07/09 03:51:46;;;;;;;;;7.00;7.00;;;;;;;;119889;1183;24695;-67
2023/07/09 03:54:14;;;;;;;;;6.00;6.00;;;;;;;;119656;1185;25502;-66
2023/07/09 03:56:43;;;;;;;;;6.00;5.00;;;;;;;;119831;1189;24819;-66
2023/07/09 03:59:11;;;;;;;;;5.00;5.00;;;;;;;;119864;1183;25183;-66
2023/07/09 04:01:39;;;;;;;;;6.00;5.00;;;;;;;;119484;1186;24703;-67
2023/07/09 04:04:08;;;;;;;;;5.00;4.67;;;;;;;;119868;1192;24819;-67
2023/07/09 04:06:36;;;;;;;;;5.50;5.00;;;;;;;;119498;1186;25697;-66
2023/07/09 04:09:05;;;;;;;;;6.33;4.67;;;;;;;;119842;1188;25634;-66
2023/07/09 04:11:33;;;;;;;;;6.00;6.00;;;;;;;;119859;1192;25226;-66
2023/07/09 04:14:01;;;;;;;;;6.75;5.25;;;;;;;;119864;1184;25133;-66
2023/07/09 04:16:30;;;;;;;;;8.00;6.00;;;;;;;;119852;1192;24908;-65
2023/07/09 04:18:58;;;;;;;;;8.00;7.50;;;;;;;;119827;1192;25377;-66
2023/07/09 04:21:26;;;;;;;;;5.00;5.00;;;;;;;;119873;1183;24833;-67
2023/07/09 04:23:55;;;;;;;;;5.50;5.50;;;;;;;;119861;1190;25040;-63
2023/07/09 04:26:23;;;;;;;;;4.00;4.00;;;;;;;;119525;1192;24841;-66
2023/07/09 04:28:51;;;;;;;;;5.00;5.00;;;;;;;;119862;1192;25730;-67
2023/07/09 04:31:20;;;;;;;;;5.33;3.00;;;;;;;;119851;1192;25157;-67
2023/07/09 04:33:48;;;;;;;;;8.50;8.50;;;;;;;;119879;1183;25002;-66
2023/07/09 04:36:16;;;;;;;;;7.67;5.67;;;;;;;;119878;1183;25297;-66
2023/07/09 04:38:44;;;;;;;;;7.00;4.67;;;;;;;;119861;1183;25245;-67
2023/07/09 04:41:13;;;;;;;;;7.50;6.00;;;;;;;;119828;1180;25650;-66
2023/07/09 04:43:41;;;;;;;;;6.67;5.00;;;;;;;;119880;1192;25363;-66
2023/07/09 04:46:09;;;;;;;;;6.00;5.00;;;;;;;;119706;1192;24824;-67
2023/07/09 04:48:38;;;;;;;;;5.67;5.67;;;;;;;;119877;1192;25279;-67
2023/07/09 04:51:06;;;;;;;;;6.50;6.50;;;;;;;;119848;1190;24733;-67
2023/07/09 04:53:35;;;;;;;;;5.00;5.00;;;;;;;;119841;1189;26399;-66
2023/07/09 04:56:03;;;;;;;;;6.00;6.00;;;;;;;;119827;1192;25454;-66
2023/07/09 04:58:32;;;;;;;;;7.50;6.50;;;;;;;;119483;1192;25156;-66
2023/07/09 05:01:01;;;;;;;;;5.00;5.00;;;;;;;;119870;1183;25138;-65
2023/07/09 05:03:29;;;;;;;;;5.00;4.50;;;;;;;;119651;1185;25527;-68
2023/07/09 05:05:58;;;;;;;;;9.50;7.50;;;;;;;;119817;1192;25488;-66
2023/07/09 05:08:26;;;;;;;;;7.67;7.00;;;;;;;;119853;1192;25297;-68
2023/07/09 05:10:56;;;;;;;;;9.33;5.00;;;;;;;;119878;1189;25380;-66
2023/07/09 05:13:25;;;;;;;;;8.25;6.50;;;;;;;;119472;1180;25215;-67
2023/07/09 05:15:55;;;;;;;;;6.50;6.50;;;;;;;;119457;1192;25296;-66
2023/07/09 05:18:24;;;;;;;;;9.00;6.67;;;;;;;;119470;1185;25670;-66
2023/07/09 05:20:52;;;;;;;;;7.50;7.50;;;;;;;;119688;1192;24784;-66
2023/07/09 05:23:20;;;;;;;;;7.50;5.00;;;;;;;;119835;1189;25011;-66
2023/07/09 05:25:48;;;;;;;;;6.00;5.00;;;;;;;;119857;1183;25081;-66
2023/07/09 05:28:17;;;;;;;;;7.00;7.00;;;;;;;;119864;1192;24877;-67
2023/07/09 05:30:45;;;;;;;;;3.00;3.00;;;;;;;;119708;1192;25628;-66
2023/07/09 05:33:13;;;;;;;;;7.25;6.50;;;;;;;;119854;1192;24888;-67
2023/07/09 05:35:42;;;;;;;;;7.00;6.00;;;;;;;;119860;1189;25477;-67
2023/07/09 05:38:12;;;;;;;;;7.00;5.00;;;;;;;;119729;1192;25806;-67
2023/07/09 05:40:41;;;;;;;;;5.33;5.33;;;;;;;;119463;1190;25491;-67
2023/07/09 05:43:11;;;;;;;;;7.00;6.67;;;;;;;;119848;1192;24733;-65
2023/07/09 05:45:39;;;;;;;;;9.00;8.50;;;;;;;;119722;1192;25410;-63
2023/07/09 05:48:07;;;;;;;;;6.67;6.00;;;;;;;;119833;1183;25189;-66
2023/07/09 05:50:36;;;;;;;;;5.50;5.00;;;;;;;;119875;1188;25206;-67
2023/07/09 05:53:05;;;;;;;;;10.75;6.50;;;;;;;;119476;1189;25079;-65
2023/07/09 05:55:33;;;;;;;;;6.00;6.00;;;;;;;;119851;1189;25382;-66
2023/07/09 05:58:02;;;;;;;;;9.67;7.00;;;;;;;;119698;1189;25459;-67
2023/07/09 06:00:31;;;;;;;;;6.50;6.00;;;;;;;;119490;1192;25165;-66
2023/07/09 06:03:01;;;;;;;;;4.67;4.67;;;;;;;;119848;1192;25166;-66
2023/07/09 06:05:29;;;;;;;;;6.00;6.00;;;;;;;;119481;1188;24945;-66
2023/07/09 06:07:57;;;;;;;;;5.00;5.00;;;;;;;;119509;1192;24757;-67
2023/07/09 06:10:26;;;;;;;;;5.00;4.00;;;;;;;;119496;1185;25508;-66
2023/07/09 06:12:54;;;;;;;;;8.00;8.00;;;;;;;;119848;1188;25374;-67
2023/07/09 06:15:22;;;;;;;;;6.00;5.00;;;;;;;;119856;1183;25147;-66
2023/07/09 06:17:51;;;;;;;;;5.33;5.33;;;;;;;;119847;1183;24868;-67
2023/07/09 06:20:19;;;;;;;;;6.00;6.00;;;;;;;;119700;1188;24958;-66
2023/07/09 06:22:47;;;;;;;;;6.00;5.00;;;;;;;;119892;1184;25299;-66
2023/07/09 06:25:16;;;;;;;;;7.00;7.00;;;;;;;;119860;1188;25281;-64
2023/07/09 06:27:44;;;;;;;;;5.00;5.00;;;;;;;;119856;1190;26149;-66
2023/07/09 06:30:14;;;;;;;;;5.00;5.00;;;;;;;;119836;1192;24869;-66
2023/07/09 06:32:42;;;;;;;;;8.67;8.67;;;;;;;;119854;1188;25166;-66
2023/07/09 06:35:10;;;;;;;;;6.00;6.00;;;;;;;;119453;1192;25313;-66
2023/07/09 06:37:38;;;;;;;;;7.33;7.33;;;;;;;;119831;1183;24948;-66
2023/07/09 06:40:08;;;;;;;;;8.00;8.00;;;;;;;;119846;1183;25319;-66
2023/07/09 06:42:37;;;;;;;;;5.00;5.00;;;;;;;;119866;1184;25277;-66
2023/07/09 06:45:06;;;;;;;;;7.00;7.00;;;;;;;;119853;1192;25098;-71
2023/07/09 06:47:34;;;;;;;;;6.00;5.67;;;;;;;;119842;1192;25394;-70
2023/07/09 06:50:02;;;;;;;;;7.75;7.25;;;;;;;;119863;1192;25085;-77
2023/07/09 06:52:31;;;;;;;;;10.00;6.00;;;;;;;;119838;1184;25169;-76
2023/07/09 06:54:59;;;;;;;;;7.50;6.50;;;;;;;;119850;1192;25269;-75
2023/07/09 06:57:27;;;;;;;;;9.00;7.00;;;;;;;;119693;1185;25711;-72
2023/07/09 06:59:56;;;;;;;;;8.50;7.25;;;;;;;;119850;1192;25373;-74
2023/07/09 07:02:24;;;;;;;;;6.33;5.33;;;;;;;;119863;1189;25306;-68
2023/07/09 07:04:52;;;;;;;;;6.00;5.25;;;;;;;;119644;1180;25214;-72
2023/07/09 07:07:21;;;;;;;;;8.00;7.00;;;;;;;;119812;1189;25204;-72
2023/07/09 07:09:49;;;;;;;;;8.00;7.00;;;;;;;;119836;1189;25218;-73
2023/07/09 07:12:26;;;;;;;;;10.00;7.50;;;;;;;;119850;1192;25723;-73
2023/07/09 07:14:55;;;;;;;;;5.00;5.00;;;;;;;;119863;1192;25635;-70
2023/07/09 07:17:23;;;;;;;;;8.00;7.00;;;;;;;;119468;1192;25921;-69
2023/07/09 07:19:52;;;;;;;;;8.00;8.00;;;;;;;;119868;1184;24967;-69
2023/07/09 07:22:20;;;;;;;;;8.67;8.00;;;;;;;;119854;1192;25476;-70
2023/07/09 07:24:48;;;;;;;;;7.33;6.33;;;;;;;;119827;1192;25606;-70
2023/07/09 07:27:17;;;;;;;;;8.25;7.75;;;;;;;;119867;1184;25722;-71
2023/07/09 07:29:45;;;;;;;;;8.33;7.33;;;;;;;;119479;1192;24904;-69
2023/07/09 07:32:13;;;;;;;;;12.00;8.00;;;;;;;;119852;1188;24848;-70
2023/07/09 07:34:42;;;;;;;;;7.00;6.00;;;;;;;;119689;1183;24831;-70
2023/07/09 07:37:10;;;;;;;;;6.00;6.00;;;;;;;;119835;1192;24942;-73
2023/07/09 07:39:38;;;;;;;;;9.00;6.00;;;;;;;;119806;1192;24925;-74
2023/07/09 07:42:07;;;;;;;;;8.00;8.00;;;;;;;;119859;1180;25584;-75
2023/07/09 07:44:35;;;;;;;;;8.75;6.75;;;;;;;;119498;1180;24881;-72
2023/07/09 07:47:05;;;;;;;;;7.50;5.00;;;;;;;;119842;1192;24919;-65
2023/07/09 07:49:33;;;;;;;;;8.00;6.67;;;;;;;;119697;1186;25659;-74
2023/07/09 07:52:03;;;;;;;;;8.00;8.00;;;;;;;;119825;1188;25547;-76
2023/07/09 07:54:31;;;;;;;;;10.00;6.00;;;;;;;;119722;1189;25515;-76
2023/07/09 07:57:00;;;;;;;;;8.67;7.33;;;;;;;;119500;1185;24998;-71
2023/07/09 07:59:29;;;;;;;;;8.25;8.25;;;;;;;;119479;1185;24825;-72
2023/07/09 08:01:57;;;;;;;;;8.00;8.00;;;;;;;;119731;1185;25115;-72
2023/07/09 08:04:26;;;;;;;;;9.00;8.00;;;;;;;;119509;1185;25092;-75
2023/07/09 08:06:54;;;;;;;;;5.67;4.33;;;;;;;;119869;1188;25425;-74
2023/07/09 08:09:23;;;;;;;;;3.75;3.50;;;;;;;;119489;1186;25731;-74
2023/07/09 08:11:51;;;;;;;;;6.67;6.67;;;;;;;;119856;1192;25161;-75
2023/07/09 08:14:20;;;;;;;;;10.00;3.67;;;;;;;;119890;1188;25004;-74
2023/07/09 08:16:48;;;;;;;;;5.00;5.00;;;;;;;;119601;1189;24969;-77
2023/07/09 08:19:19;;;;;;;;;6.00;6.00;;;;;;;;119865;1184;25435;-72
2023/07/09 08:21:47;;;;;;;;;5.50;5.00;;;;;;;;119498;1192;25462;-74
2023/07/09 08:24:16;;;;;;;;;5.00;5.00;;;;;;;;119873;1184;25624;-76
2023/07/09 08:26:44;;;;;;;;;8.50;6.00;;;;;;;;119485;1192;25156;-71
2023/07/09 08:29:12;;;;;;;;;8.50;7.00;;;;;;;;119826;1192;25282;-68
2023/07/09 08:31:41;;;;;;;;;7.00;7.00;;;;;;;;119849;1189;25525;-71
2023/07/09 08:34:10;;;;;;;;;8.50;5.50;;;;;;;;119853;1190;24693;-74
2023/07/09 08:36:38;;;;;;;;;6.33;6.00;;;;;;;;119841;1189;25159;-69
2023/07/09 08:39:06;;;;;;;;;7.67;5.00;;;;;;;;119856;1192;25390;-74
2023/07/09 08:42:00;;;;;;;;;6.00;6.00;;;;;;;;119834;1192;25629;-71
2023/07/09 08:45:12;;;;;;;;;6.67;6.33;;;;;;;;119477;1184;24843;-71
2023/07/09 08:47:41;;;;;;;;;7.00;5.00;;;;;;;;119656;1189;25416;-69
2023/07/09 08:50:13;;;;;;;;;7.50;6.00;;;;;;;;119475;1192;25460;-71
2023/07/09 08:52:44;;;;;;;;;9.00;9.00;;;;;;;;119494;1192;25610;-70
2023/07/09 08:55:17;;;;;;;;;8.00;7.00;;;;;;;;119872;1192;25427;-70
2023/07/09 08:57:50;;;;;;;;;7.33;7.33;;;;;;;;119460;1186;25041;-72
2023/07/09 09:00:44;;;;;;;;;5.50;5.00;;;;;;;;119474;1192;25618;-71
2023/07/09 09:03:39;;;;;;;;;10.00;9.00;;;;;;;;119852;1188;25157;-71
2023/07/09 09:06:12;;;;;;;;;9.00;7.50;;;;;;;;119513;1192;25331;-72
2023/07/09 09:09:08;;;;;;;;;9.00;7.00;;;;;;;;119470;1190;24886;-71
2023/07/09 09:11:44;;;;;;;;;11.50;9.00;;;;;;;;119830;1184;25575;-70
2023/07/09 09:14:26;;;;;;;;;11.00;7.00;;;;;;;;119838;1192;25520;-68
2023/07/09 09:16:55;;;;;;;;;9.50;6.00;;;;;;;;119829;1184;24899;-66
2023/07/09 09:19:36;;;;;;;;;10.50;9.00;;;;;;;;119843;1192;25345;-63
2023/07/09 09:22:14;;;;;;;;;9.33;7.67;;;;;;;;119522;1186;25317;-69
2023/07/09 09:25:12;;;;;;;;;12.00;8.33;;;;;;;;119498;1186;25735;-68
2023/07/09 09:27:41;;;;;;;;;11.00;8.50;;;;;;;;119700;1189;24850;-69
2023/07/09 09:30:18;;;;;;;;;8.00;7.50;;;;;;;;119836;1185;25814;-70
2023/07/09 09:32:58;;;;;;;;;8.00;7.50;;;;;;;;119836;1189;24905;-67
2023/07/09 09:35:38;;;;;;;;;7.50;7.50;;;;;;;;119485;1192;25014;-64
2023/07/09 09:38:12;;;;;;;;;8.25;7.75;;;;;;;;119431;1185;25064;-68
2023/07/09 09:40:40;;;;;;;;;10.67;8.00;;;;;;;;119461;1186;25529;-73
2023/07/09 09:43:19;;;;;;;;;9.00;8.00;;;;;;;;119469;1192;25680;-66
2023/07/09 09:45:49;;;;;;;;;11.50;7.00;;;;;;;;119854;1192;25417;-65
2023/07/09 09:48:19;;;;;;;;;25.75;19.25;;;;;;;;119495;1186;24846;-66
2023/07/09 09:50:48;;;;;;;;;14.00;10.00;;;;;;;;119870;1186;25652;-65
2023/07/09 09:53:24;;;;;;;;;56.33;36.00;;;;;;;;119485;1185;25287;-67
2023/07/09 09:55:54;;;;;;;;;50.00;36.33;;;;;;;;119477;1190;25942;-67
2023/07/09 09:58:30;;;;;;;;;67.33;45.67;;;;;;;;119473;1192;25661;-65
2023/07/09 10:01:00;;;;;;;;;80.00;55.00;;;;;;;;119508;1185;24903;-65
2023/07/09 10:03:37;;;;;;;;;70.50;49.50;;;;;;;;119461;1192;24902;-68
2023/07/09 10:06:15;;;;;;;;;71.00;50.00;;;;;;;;119530;1189;25120;-67
2023/07/09 10:08:49;;;;;;;;;74.50;51.00;;;;;;;;119502;1190;25282;-65
2023/07/09 10:11:30;;;;;;;;;72.00;46.00;;;;;;;;119870;1184;25263;-65
2023/07/09 10:14:05;;;;;;;;;74.00;50.00;;;;;;;;119467;1185;25454;-65
2023/07/09 10:16:39;;;;;;;;;66.50;45.50;;;;;;;;119476;1186;24948;-66
2023/07/09 10:19:29;;;;;;;;;69.50;43.50;;;;;;;;119474;1185;25670;-68
2023/07/09 10:22:05;;;;;;;;;70.50;49.25;;;;;;;;119875;1183;25576;-65
2023/07/09 10:24:48;;;;;;;;;56.50;44.00;;;;;;;;119846;1183;24863;-69
2023/07/09 10:27:22;;;;;;;;;65.00;46.50;;;;;;;;119839;1183;25381;-65
2023/07/09 10:30:08;;;;;;;;;64.67;41.33;;;;;;;;119477;1192;24843;-65
2023/07/09 10:33:01;;;;;;;;;58.00;39.50;;;;;;;;119684;1186;25055;-65
2023/07/09 10:35:30;;;;;;;;;59.67;42.00;;;;;;;;119841;1189;25385;-65
2023/07/09 10:38:26;;;;;;;;;65.33;40.67;;;;;;;;119887;1179;25846;-65
2023/07/09 10:40:56;;;;;;;;;63.50;41.00;;;;;;;;119840;1183;25378;-68
2023/07/09 10:43:38;;;;;;;;;55.00;38.33;;;;;;;;119516;1183;25262;-66
2023/07/09 10:46:19;;;;;;;;;53.00;38.00;;;;;;;;119882;1185;24805;-66
2023/07/09 10:48:50;;;;;;;;;44.50;35.50;;;;;;;;119835;1185;25469;-66
2023/07/09 10:51:44;;;;;;;;;52.33;34.67;;;;;;;;119447;1192;25214;-67
2023/07/09 10:54:35;;;;;;;;;48.00;34.00;;;;;;;;119480;1184;25299;-72
2023/07/09 10:57:12;;;;;;;;;39.67;31.00;;;;;;;;119492;1190;25477;-71
2023/07/09 10:59:42;;;;;;;;;39.50;28.00;;;;;;;;119468;1189;25230;-71
2023/07/09 11:02:22;;;;;;;;;37.25;28.25;;;;;;;;119489;1190;25078;-74
2023/07/09 11:05:00;;;;;;;;;43.00;24.50;;;;;;;;119844;1183;24806;-74
2023/07/09 11:07:36;;;;;;;;;37.00;25.00;;;;;;;;119486;1184;25540;-71
2023/07/09 11:10:17;;;;;;;;;33.67;21.33;;;;;;;;119505;1192;25212;-73
2023/07/09 11:12:56;;;;;;;;;39.25;29.25;;;;;;;;119811;1184;25553;-66
2023/07/09 11:15:33;;;;;;;;;30.25;23.00;;;;;;;;119703;1192;25518;-73
2023/07/09 11:18:05;;;;;;;;;35.00;24.00;;;;;;;;119492;1192;25271;-71
2023/07/09 11:20:37;;;;;;;;;36.00;24.00;;;;;;;;119488;1192;24743;-75
2023/07/09 11:23:23;;;;;;;;;34.67;23.00;;;;;;;;119870;1184;25607;-70
2023/07/09 11:26:10;;;;;;;;;29.00;19.50;;;;;;;;119864;1184;25347;-73
2023/07/09 11:28:40;;;;;;;;;16.50;12.00;;;;;;;;119518;1181;24780;-71
2023/07/09 11:31:20;;;;;;;;;19.67;14.00;;;;;;;;119526;1185;25282;-74
2023/07/09 11:34:01;;;;;;;;;18.50;14.00;;;;;;;;119477;1190;28032;-73
2023/07/09 11:36:30;;;;;;;;;26.00;18.50;;;;;;;;119468;1192;25551;-69
2023/07/09 11:39:00;;;;;;;;;22.50;16.25;;;;;;;;119492;1185;25129;-71
2023/07/09 11:41:39;;;;;;;;;22.67;19.00;;;;;;;;119858;1183;25039;-73
2023/07/09 11:44:23;;;;;;;;;24.33;19.00;;;;;;;;119861;1192;25526;-72
2023/07/09 11:47:12;;;;;;;;;26.00;17.50;;;;;;;;119488;1192;24701;-73
2023/07/09 11:49:58;;;;;;;;;18.00;15.75;;;;;;;;119498;1192;24825;-70
2023/07/09 11:52:51;;;;;;;;;18.50;17.25;;;;;;;;119468;1192;24811;-72
2023/07/09 11:55:27;;;;;;;;;25.67;16.67;;;;;;;;119512;1185;25178;-73
2023/07/09 11:58:03;;;;;;;;;19.50;13.75;;;;;;;;119830;1183;24916;-73
2023/07/09 12:00:41;;;;;;;;;16.00;12.50;;;;;;;;119857;1179;25049;-73
2023/07/09 12:03:23;;;;;;;;;16.50;11.50;;;;;;;;119867;1192;25668;-71
2023/07/09 12:05:56;;;;;;;;;20.00;16.00;;;;;;;;119834;1180;25462;-71
2023/07/09 12:08:32;;;;;;;;;16.50;16.25;;;;;;;;119814;1192;24761;-72
2023/07/09 12:11:00;;;;;;;;;15.50;11.50;;;;;;;;119853;1192;25405;-71
2023/07/09 12:13:36;;;;;;;;;11.67;10.00;;;;;;;;119843;1189;25136;-72
2023/07/09 12:16:20;;;;;;;;;14.33;11.00;;;;;;;;119838;1192;25158;-71
2023/07/09 12:18:48;;;;;;;;;13.00;10.00;;;;;;;;119850;1183;24860;-70
2023/07/09 12:21:17;;;;;;;;;19.00;11.67;;;;;;;;119846;1192;25104;-65
2023/07/09 12:23:46;;;;;;;;;10.33;9.67;;;;;;;;119465;1186;25065;-65
2023/07/09 12:26:16;;;;;;;;;15.00;11.67;;;;;;;;119706;1192;25344;-65
2023/07/09 12:28:52;;;;;;;;;15.50;13.50;;;;;;;;119820;1192;25191;-64
2023/07/09 12:31:30;;;;;;;;;11.25;10.25;;;;;;;;119493;1186;24748;-63
2023/07/09 12:33:59;;;;;;;;;9.67;9.33;;;;;;;;119494;1185;25428;-64
2023/07/09 12:36:28;;;;;;;;;16.00;11.00;;;;;;;;119475;1186;25345;-64
2023/07/09 12:39:02;;;;;;;;;8.25;6.50;;;;;;;;119864;1183;25667;-64
2023/07/09 12:41:41;;;;;;;;;16.33;10.33;;;;;;;;119503;1189;25281;-64
2023/07/09 12:44:20;;;;;;;;;11.00;10.25;;;;;;;;119703;1192;25568;-63
2023/07/09 12:46:50;;;;;;;;;15.00;11.00;;;;;;;;119472;1189;25569;-63
2023/07/09 12:49:30;;;;;;;;;10.00;9.00;;;;;;;;119481;1192;25783;-62
2023/07/09 12:52:01;;;;;;;;;14.33;8.33;;;;;;;;119489;1192;24742;-63
2023/07/09 12:54:30;;;;;;;;;11.50;11.50;;;;;;;;119478;1186;24907;-63
2023/07/09 12:56:59;;;;;;;;;9.00;9.00;;;;;;;;119836;1179;25028;-63
2023/07/09 12:59:37;;;;;;;;;8.33;7.00;;;;;;;;119477;1192;25985;-64
2023/07/09 13:02:20;;;;;;;;;11.00;10.67;;;;;;;;119477;1192;25130;-63
2023/07/09 13:04:50;;;;;;;;;5.33;4.00;;;;;;;;119482;1185;25093;-64
2023/07/09 13:07:25;;;;;;;;;16.00;10.50;;;;;;;;119464;1192;25665;-64
2023/07/09 13:09:55;;;;;;;;;9.67;7.67;;;;;;;;119693;1186;25656;-64
2023/07/09 13:12:31;;;;;;;;;10.67;10.00;;;;;;;;119480;1192;25563;-64
2023/07/09 13:15:00;;;;;;;;;10.00;10.00;;;;;;;;119868;1189;24910;-65
2023/07/09 13:17:32;;;;;;;;;6.00;6.00;;;;;;;;119501;1180;25472;-64
2023/07/09 13:20:00;;;;;;;;;8.00;7.00;;;;;;;;119696;1186;25150;-63
2023/07/09 13:22:29;;;;;;;;;10.00;7.25;;;;;;;;119827;1192;25637;-65
2023/07/09 13:24:57;;;;;;;;;8.00;8.00;;;;;;;;119864;1192;25064;-64
2023/07/09 13:27:25;;;;;;;;;8.50;8.50;;;;;;;;119844;1192;24698;-64
2023/07/09 13:29:54;;;;;;;;;6.50;6.50;;;;;;;;119837;1188;25126;-65
2023/07/09 13:32:22;;;;;;;;;8.00;7.00;;;;;;;;119846;1189;24796;-64
2023/07/09 13:34:50;;;;;;;;;7.67;7.67;;;;;;;;119865;1183;25560;-64
2023/07/09 13:37:19;;;;;;;;;5.00;5.00;;;;;;;;119845;1192;25394;-64
2023/07/09 13:39:47;;;;;;;;;9.00;7.33;;;;;;;;119836;1192;25661;-65
2023/07/09 13:42:17;;;;;;;;;9.25;7.50;;;;;;;;119858;1184;25550;-66
2023/07/09 13:44:47;;;;;;;;;9.25;9.25;;;;;;;;119483;1186;25164;-65
2023/07/09 13:47:18;;;;;;;;;5.00;5.00;;;;;;;;119490;1186;25303;-64
2023/07/09 13:49:47;;;;;;;;;9.00;7.00;;;;;;;;119834;1192;24926;-64
2023/07/09 13:52:20;;;;;;;;;9.00;9.00;;;;;;;;119485;1190;25499;-64
2023/07/09 13:54:49;;;;;;;;;11.00;9.67;;;;;;;;119830;1189;24980;-66
2023/07/09 13:57:21;;;;;;;;;9.00;8.25;;;;;;;;119816;1192;25601;-65
2023/07/09 13:59:50;;;;;;;;;10.75;9.00;;;;;;;;119855;1179;24791;-65
2023/07/09 14:02:31;;;;;;;;;9.00;8.00;;;;;;;;119826;1192;24830;-65
2023/07/09 14:05:02;;;;;;;;;9.33;9.33;;;;;;;;119843;1188;24841;-66
2023/07/09 14:07:36;;;;;;;;;10.00;8.00;;;;;;;;119845;1188;25515;-65
2023/07/09 14:10:06;;;;;;;;;7.00;7.00;;;;;;;;119486;1192;25317;-65
2023/07/09 14:12:37;;;;;;;;;10.00;9.00;;;;;;;;119702;1186;24812;-65
2023/07/09 14:15:13;;;;;;;;;12.00;10.00;;;;;;;;119861;1179;24936;-64
2023/07/09 14:17:41;;;;;;;;;9.33;9.33;;;;;;;;119535;1192;25667;-65
2023/07/09 14:20:15;;;;;;;;;10.00;8.50;;;;;;;;119496;1192;25293;-66
2023/07/09 14:22:44;;;;;;;;;10.67;9.00;;;;;;;;119487;1192;25197;-64
2023/07/09 14:25:21;;;;;;;;;7.00;7.00;;;;;;;;119488;1192;25812;-65
2023/07/09 14:27:51;;;;;;;;;10.00;8.00;;;;;;;;119843;1192;24991;-64
2023/07/09 14:30:23;;;;;;;;;11.33;9.00;;;;;;;;119508;1192;25377;-68
2023/07/09 14:32:53;;;;;;;;;8.25;8.25;;;;;;;;119859;1192;24921;-68
2023/07/09 14:35:23;;;;;;;;;9.00;7.50;;;;;;;;119872;1192;25006;-66
2023/07/09 14:37:53;;;;;;;;;8.75;8.25;;;;;;;;119503;1189;25324;-66
2023/07/09 14:40:22;;;;;;;;;11.00;7.00;;;;;;;;119709;1192;25580;-65
2023/07/09 14:42:50;;;;;;;;;8.00;8.00;;;;;;;;119482;1192;25543;-65
2023/07/09 14:45:24;;;;;;;;;3.33;2.67;;;;;;;;119487;1185;25432;-65
2023/07/09 14:47:53;;;;;;;;;9.67;7.67;;;;;;;;119841;1183;25273;-65
2023/07/09 14:50:23;;;;;;;;;8.50;8.50;;;;;;;;119865;1192;25212;-64